sensor_id;sensor_type;location;lat;lon;timestamp;temperature;humidity
17774;DHT22;9011;33.236;-97.118;2023-04-03T00:01:25;22.40;99.90
17774;DHT22;9011;33.236;-97.118;2023-04-03T00:03:55;22.10;99.90
17774;DHT22;9011;33.236;-97.118;2023-04-03T00:06:23;21.70;99.90
17774;DHT22;9011;33.236;-97.118;2023-04-03T00:08:56;21.40;99.90
17774;DHT22;9011;33.236;-97.118;2023-04-03T00:11:25;21.30;99.90
17774;DHT22;9011;33.236;-97.118;2023-04-03T00:13:53;21.00;99.90
17774;DHT22;9011;33.236;-97.118;2023-04-03T00:16:22;20.60;99.90
17774;DHT22;9011;33.236;-97.118;2023-04-03T00:18:50;20.80;99.90
17774;DHT22;9011;33.236;-97.118;2023-04-03T00:21:19;20.80;99.90
17774;DHT22;9011;33.236;-97.118;2023-04-03T00:23:47;20.90;99.90
17774;DHT22;9011;33.236;-97.118;2023-04-03T00:26:18;20.90;99.90
17774;DHT22;9011;33.236;-97.118;2023-04-03T00:28:47;20.90;99.90
17774;DHT22;9011;33.236;-97.118;2023-04-03T00:31:16;20.90;99.90
17774;DHT22;9011;33.236;-97.118;2023-04-03T00:33:45;20.80;99.90
17774;DHT22;9011;33.236;-97.118;2023-04-03T00:36:13;20.40;99.90
17774;DHT22;9011;33.236;-97.118;2023-04-03T00:38:42;20.20;99.90
17774;DHT22;9011;33.236;-97.118;2023-04-03T00:41:11;20.20;99.90
17774;DHT22;9011;33.236;-97.118;2023-04-03T00:43:41;20.30;99.90
17774;DHT22;9011;33.236;-97.118;2023-04-03T00:46:10;20.20;99.90
17774;DHT22;9011;33.236;-97.118;2023-04-03T00:48:40;20.20;99.90
17774;DHT22;9011;33.236;-97.118;2023-04-03T00:51:11;20.30;99.90
17774;DHT22;9011;33.236;-97.118;2023-04-03T00:53:44;20.20;99.90
17774;DHT22;9011;33.236;-97.118;2023-04-03T00:56:16;20.20;99.90
17774;DHT22;9011;33.236;-97.118;2023-04-03T00:58:50;20.10;99.90
17774;DHT22;9011;33.236;-97.118;2023-04-03T01:01:22;19.90;99.90
17774;DHT22;9011;33.236;-97.118;2023-04-03T01:03:51;20.00;99.90
17774;DHT22;9011;33.236;-97.118;2023-04-03T01:06:23;19.90;99.90
17774;DHT22;9011;33.236;-97.118;2023-04-03T01:08:53;19.80;99.90
17774;DHT22;9011;33.236;-97.118;2023-04-03T01:11:23;19.50;99.90
17774;DHT22;9011;33.236;-97.118;2023-04-03T01:13:54;19.40;99.90
17774;DHT22;9011;33.236;-97.118;2023-04-03T01:16:23;19.30;99.90
17774;DHT22;9011;33.236;-97.118;2023-04-03T01:18:51;19.30;99.90
17774;DHT22;9011;33.236;-97.118;2023-04-03T01:21:53;19.30;99.90
17774;DHT22;9011;33.236;-97.118;2023-04-03T01:24:31;19.30;99.90
17774;DHT22;9011;33.236;-97.118;2023-04-03T01:27:03;19.30;99.90
17774;DHT22;9011;33.236;-97.118;2023-04-03T01:29:34;19.20;99.90
17774;DHT22;9011;33.236;-97.118;2023-04-03T01:32:05;19.10;99.90
17774;DHT22;9011;33.236;-97.118;2023-04-03T01:34:33;19.00;99.90
17774;DHT22;9011;33.236;-97.118;2023-04-03T01:37:05;18.90;99.90
17774;DHT22;9011;33.236;-97.118;2023-04-03T01:39:33;19.00;99.90
17774;DHT22;9011;33.236;-97.118;2023-04-03T01:42:02;18.90;99.90
17774;DHT22;9011;33.236;-97.118;2023-04-03T01:44:32;18.90;99.90
17774;DHT22;9011;33.236;-97.118;2023-04-03T01:47:00;18.80;99.90
17774;DHT22;9011;33.236;-97.118;2023-04-03T01:49:30;18.60;99.90
17774;DHT22;9011;33.236;-97.118;2023-04-03T01:51:59;18.70;99.90
17774;DHT22;9011;33.236;-97.118;2023-04-03T01:54:27;18.50;99.90
17774;DHT22;9011;33.236;-97.118;2023-04-03T01:56:56;18.50;99.90
17774;DHT22;9011;33.236;-97.118;2023-04-03T01:59:25;18.60;99.90
17774;DHT22;9011;33.236;-97.118;2023-04-03T02:01:55;18.50;99.90
17774;DHT22;9011;33.236;-97.118;2023-04-03T02:04:24;18.50;99.90
17774;DHT22;9011;33.236;-97.118;2023-04-03T02:06:54;18.40;99.90
17774;DHT22;9011;33.236;-97.118;2023-04-03T02:09:23;18.40;99.90
17774;DHT22;9011;33.236;-97.118;2023-04-03T02:11:52;18.40;99.90
17774;DHT22;9011;33.236;-97.118;2023-04-03T02:14:22;18.40;99.90
17774;DHT22;9011;33.236;-97.118;2023-04-03T02:16:53;18.30;99.90
17774;DHT22;9011;33.236;-97.118;2023-04-03T02:19:22;18.30;99.90
17774;DHT22;9011;33.236;-97.118;2023-04-03T02:21:50;18.30;99.90
17774;DHT22;9011;33.236;-97.118;2023-04-03T02:24:21;18.20;99.90
17774;DHT22;9011;33.236;-97.118;2023-04-03T02:26:49;18.20;99.90
17774;DHT22;9011;33.236;-97.118;2023-04-03T02:29:18;18.10;99.90
17774;DHT22;9011;33.236;-97.118;2023-04-03T02:31:47;18.10;99.90
17774;DHT22;9011;33.236;-97.118;2023-04-03T02:34:17;17.90;99.90
17774;DHT22;9011;33.236;-97.118;2023-04-03T02:36:46;17.80;99.90
17774;DHT22;9011;33.236;-97.118;2023-04-03T02:39:14;17.80;99.90
17774;DHT22;9011;33.236;-97.118;2023-04-03T02:41:44;17.60;99.90
17774;DHT22;9011;33.236;-97.118;2023-04-03T02:44:13;17.70;99.90
17774;DHT22;9011;33.236;-97.118;2023-04-03T02:46:42;17.60;99.90
17774;DHT22;9011;33.236;-97.118;2023-04-03T02:49:11;17.50;99.90
17774;DHT22;9011;33.236;-97.118;2023-04-03T02:51:40;17.50;99.90
17774;DHT22;9011;33.236;-97.118;2023-04-03T02:54:08;17.50;99.90
17774;DHT22;9011;33.236;-97.118;2023-04-03T02:56:37;17.50;99.90
17774;DHT22;9011;33.236;-97.118;2023-04-03T02:59:07;17.40;99.90
17774;DHT22;9011;33.236;-97.118;2023-04-03T03:01:36;17.40;99.90
17774;DHT22;9011;33.236;-97.118;2023-04-03T03:04:05;17.40;99.90
17774;DHT22;9011;33.236;-97.118;2023-04-03T03:06:33;17.30;99.90
17774;DHT22;9011;33.236;-97.118;2023-04-03T03:09:02;17.20;99.90
17774;DHT22;9011;33.236;-97.118;2023-04-03T03:11:32;17.20;99.90
17774;DHT22;9011;33.236;-97.118;2023-04-03T03:14:00;17.10;99.90
17774;DHT22;9011;33.236;-97.118;2023-04-03T03:16:31;17.20;99.90
17774;DHT22;9011;33.236;-97.118;2023-04-03T03:18:59;17.10;99.90
17774;DHT22;9011;33.236;-97.118;2023-04-03T03:21:30;17.00;99.90
17774;DHT22;9011;33.236;-97.118;2023-04-03T03:23:59;16.90;99.90
17774;DHT22;9011;33.236;-97.118;2023-04-03T03:26:28;16.90;99.90
17774;DHT22;9011;33.236;-97.118;2023-04-03T03:28:57;16.90;99.90
17774;DHT22;9011;33.236;-97.118;2023-04-03T03:31:26;16.90;99.90
17774;DHT22;9011;33.236;-97.118;2023-04-03T03:33:56;16.90;99.90
17774;DHT22;9011;33.236;-97.118;2023-04-03T03:36:24;16.70;99.90
17774;DHT22;9011;33.236;-97.118;2023-04-03T03:38:53;16.70;99.90
17774;DHT22;9011;33.236;-97.118;2023-04-03T03:41:22;16.70;99.90
17774;DHT22;9011;33.236;-97.118;2023-04-03T03:43:51;16.80;99.90
17774;DHT22;9011;33.236;-97.118;2023-04-03T03:46:19;16.70;99.90
17774;DHT22;9011;33.236;-97.118;2023-04-03T03:48:49;16.60;99.90
17774;DHT22;9011;33.236;-97.118;2023-04-03T03:51:20;16.70;99.90
17774;DHT22;9011;33.236;-97.118;2023-04-03T03:53:49;16.60;99.90
17774;DHT22;9011;33.236;-97.118;2023-04-03T03:56:18;16.60;99.90
17774;DHT22;9011;33.236;-97.118;2023-04-03T03:58:46;16.50;99.90
17774;DHT22;9011;33.236;-97.118;2023-04-03T04:01:16;16.60;99.90
17774;DHT22;9011;33.236;-97.118;2023-04-03T04:03:45;16.60;99.90
17774;DHT22;9011;33.236;-97.118;2023-04-03T04:06:14;16.60;99.90
17774;DHT22;9011;33.236;-97.118;2023-04-03T04:08:46;16.60;99.90
17774;DHT22;9011;33.236;-97.118;2023-04-03T04:11:16;16.60;99.90
17774;DHT22;9011;33.236;-97.118;2023-04-03T04:13:45;16.70;99.90
17774;DHT22;9011;33.236;-97.118;2023-04-03T04:16:13;16.60;99.90
17774;DHT22;9011;33.236;-97.118;2023-04-03T04:18:42;16.70;99.90
17774;DHT22;9011;33.236;-97.118;2023-04-03T04:21:11;16.60;99.90
17774;DHT22;9011;33.236;-97.118;2023-04-03T04:23:43;16.60;99.90
17774;DHT22;9011;33.236;-97.118;2023-04-03T04:26:11;16.50;99.90
17774;DHT22;9011;33.236;-97.118;2023-04-03T04:28:40;16.60;99.90
17774;DHT22;9011;33.236;-97.118;2023-04-03T04:31:10;16.60;99.90
17774;DHT22;9011;33.236;-97.118;2023-04-03T04:33:39;16.60;99.90
17774;DHT22;9011;33.236;-97.118;2023-04-03T04:36:08;16.70;99.90
17774;DHT22;9011;33.236;-97.118;2023-04-03T04:38:38;16.60;99.90
17774;DHT22;9011;33.236;-97.118;2023-04-03T04:41:08;16.60;99.90
17774;DHT22;9011;33.236;-97.118;2023-04-03T04:43:37;16.60;99.90
17774;DHT22;9011;33.236;-97.118;2023-04-03T04:46:07;16.60;99.90
17774;DHT22;9011;33.236;-97.118;2023-04-03T04:48:36;16.60;99.90
17774;DHT22;9011;33.236;-97.118;2023-04-03T04:51:05;16.50;99.90
17774;DHT22;9011;33.236;-97.118;2023-04-03T04:53:35;16.60;99.90
17774;DHT22;9011;33.236;-97.118;2023-04-03T04:56:04;16.60;99.90
17774;DHT22;9011;33.236;-97.118;2023-04-03T04:58:35;16.60;99.90
17774;DHT22;9011;33.236;-97.118;2023-04-03T05:01:05;16.50;99.90
17774;DHT22;9011;33.236;-97.118;2023-04-03T05:03:34;16.50;99.90
17774;DHT22;9011;33.236;-97.118;2023-04-03T05:06:03;16.50;99.90
17774;DHT22;9011;33.236;-97.118;2023-04-03T05:08:32;16.50;99.90
17774;DHT22;9011;33.236;-97.118;2023-04-03T05:11:01;16.60;99.90
17774;DHT22;9011;33.236;-97.118;2023-04-03T05:13:29;16.50;99.90
17774;DHT22;9011;33.236;-97.118;2023-04-03T05:16:01;16.50;99.90
17774;DHT22;9011;33.236;-97.118;2023-04-03T05:18:30;16.50;99.90
17774;DHT22;9011;33.236;-97.118;2023-04-03T05:20:59;16.50;99.90
17774;DHT22;9011;33.236;-97.118;2023-04-03T05:23:28;16.50;99.90
17774;DHT22;9011;33.236;-97.118;2023-04-03T05:25:57;16.60;99.90
17774;DHT22;9011;33.236;-97.118;2023-04-03T05:28:25;16.50;99.90
17774;DHT22;9011;33.236;-97.118;2023-04-03T05:30:54;16.50;99.90
17774;DHT22;9011;33.236;-97.118;2023-04-03T05:33:25;16.50;99.90
17774;DHT22;9011;33.236;-97.118;2023-04-03T05:35:55;16.50;99.90
17774;DHT22;9011;33.236;-97.118;2023-04-03T05:38:24;16.50;99.90
17774;DHT22;9011;33.236;-97.118;2023-04-03T05:40:52;16.50;99.90
17774;DHT22;9011;33.236;-97.118;2023-04-03T05:43:21;16.40;99.90
17774;DHT22;9011;33.236;-97.118;2023-04-03T05:45:50;16.50;99.90
17774;DHT22;9011;33.236;-97.118;2023-04-03T05:48:18;16.50;99.90
17774;DHT22;9011;33.236;-97.118;2023-04-03T05:50:49;16.50;99.90
17774;DHT22;9011;33.236;-97.118;2023-04-03T05:53:21;16.50;99.90
17774;DHT22;9011;33.236;-97.118;2023-04-03T05:55:50;16.40;99.90
17774;DHT22;9011;33.236;-97.118;2023-04-03T05:58:19;16.40;99.90
17774;DHT22;9011;33.236;-97.118;2023-04-03T06:00:47;16.40;99.90
17774;DHT22;9011;33.236;-97.118;2023-04-03T06:03:16;16.50;99.90
17774;DHT22;9011;33.236;-97.118;2023-04-03T06:05:45;16.50;99.90
17774;DHT22;9011;33.236;-97.118;2023-04-03T06:08:16;16.50;99.90
17774;DHT22;9011;33.236;-97.118;2023-04-03T06:10:45;16.50;99.90
17774;DHT22;9011;33.236;-97.118;2023-04-03T06:13:14;16.50;99.90
17774;DHT22;9011;33.236;-97.118;2023-04-03T06:15:43;16.50;99.90
17774;DHT22;9011;33.236;-97.118;2023-04-03T06:18:11;16.50;99.90
17774;DHT22;9011;33.236;-97.118;2023-04-03T06:20:40;16.60;99.90
17774;DHT22;9011;33.236;-97.118;2023-04-03T06:23:09;16.60;99.90
17774;DHT22;9011;33.236;-97.118;2023-04-03T06:25:40;16.60;99.90
17774;DHT22;9011;33.236;-97.118;2023-04-03T06:28:09;16.60;99.90
17774;DHT22;9011;33.236;-97.118;2023-04-03T06:30:38;16.60;99.90
17774;DHT22;9011;33.236;-97.118;2023-04-03T06:33:06;16.60;99.90
17774;DHT22;9011;33.236;-97.118;2023-04-03T06:35:35;16.60;99.90
17774;DHT22;9011;33.236;-97.118;2023-04-03T06:38:04;16.70;99.90
17774;DHT22;9011;33.236;-97.118;2023-04-03T06:40:35;16.70;99.90
17774;DHT22;9011;33.236;-97.118;2023-04-03T06:43:06;16.60;99.90
17774;DHT22;9011;33.236;-97.118;2023-04-03T06:45:35;16.70;99.90
17774;DHT22;9011;33.236;-97.118;2023-04-03T06:48:03;16.70;99.90
17774;DHT22;9011;33.236;-97.118;2023-04-03T06:50:32;16.60;99.90
17774;DHT22;9011;33.236;-97.118;2023-04-03T06:53:00;16.70;99.90
17774;DHT22;9011;33.236;-97.118;2023-04-03T06:55:30;16.70;99.90
17774;DHT22;9011;33.236;-97.118;2023-04-03T06:57:58;16.70;99.90
17774;DHT22;9011;33.236;-97.118;2023-04-03T07:00:28;16.70;99.90
17774;DHT22;9011;33.236;-97.118;2023-04-03T07:02:57;16.70;99.90
17774;DHT22;9011;33.236;-97.118;2023-04-03T07:05:25;16.70;99.90
17774;DHT22;9011;33.236;-97.118;2023-04-03T07:07:54;16.70;99.90
17774;DHT22;9011;33.236;-97.118;2023-04-03T07:10:22;16.80;99.90
17774;DHT22;9011;33.236;-97.118;2023-04-03T07:12:52;16.80;99.90
17774;DHT22;9011;33.236;-97.118;2023-04-03T07:15:21;16.80;99.90
17774;DHT22;9011;33.236;-97.118;2023-04-03T07:17:52;16.80;99.90
17774;DHT22;9011;33.236;-97.118;2023-04-03T07:20:20;16.80;99.90
17774;DHT22;9011;33.236;-97.118;2023-04-03T07:22:49;16.80;99.90
17774;DHT22;9011;33.236;-97.118;2023-04-03T07:25:18;16.80;99.90
17774;DHT22;9011;33.236;-97.118;2023-04-03T07:27:46;16.80;99.90
17774;DHT22;9011;33.236;-97.118;2023-04-03T07:30:15;16.80;99.90
17774;DHT22;9011;33.236;-97.118;2023-04-03T07:32:44;16.80;99.90
17774;DHT22;9011;33.236;-97.118;2023-04-03T07:35:14;16.90;99.90
17774;DHT22;9011;33.236;-97.118;2023-04-03T07:37:42;16.90;99.90
17774;DHT22;9011;33.236;-97.118;2023-04-03T07:40:11;16.90;99.90
17774;DHT22;9011;33.236;-97.118;2023-04-03T07:42:40;16.90;99.90
17774;DHT22;9011;33.236;-97.118;2023-04-03T07:45:09;16.90;99.90
17774;DHT22;9011;33.236;-97.118;2023-04-03T07:47:37;16.90;99.90
17774;DHT22;9011;33.236;-97.118;2023-04-03T07:50:07;16.90;99.90
17774;DHT22;9011;33.236;-97.118;2023-04-03T07:52:37;17.00;99.90
17774;DHT22;9011;33.236;-97.118;2023-04-03T07:55:06;16.90;99.90
17774;DHT22;9011;33.236;-97.118;2023-04-03T07:57:36;16.90;99.90
17774;DHT22;9011;33.236;-97.118;2023-04-03T08:00:05;16.90;99.90
17774;DHT22;9011;33.236;-97.118;2023-04-03T08:02:36;17.00;99.90
17774;DHT22;9011;33.236;-97.118;2023-04-03T08:05:05;16.90;99.90
17774;DHT22;9011;33.236;-97.118;2023-04-03T08:07:35;16.90;99.90
17774;DHT22;9011;33.236;-97.118;2023-04-03T08:10:05;16.90;99.90
17774;DHT22;9011;33.236;-97.118;2023-04-03T08:12:33;16.90;99.90
17774;DHT22;9011;33.236;-97.118;2023-04-03T08:15:04;16.90;99.90
17774;DHT22;9011;33.236;-97.118;2023-04-03T08:17:33;16.90;99.90
17774;DHT22;9011;33.236;-97.118;2023-04-03T08:20:02;16.80;99.90
17774;DHT22;9011;33.236;-97.118;2023-04-03T08:22:31;16.90;99.90
17774;DHT22;9011;33.236;-97.118;2023-04-03T08:25:01;16.90;99.90
17774;DHT22;9011;33.236;-97.118;2023-04-03T08:27:30;17.00;99.90
17774;DHT22;9011;33.236;-97.118;2023-04-03T08:29:58;17.00;99.90
17774;DHT22;9011;33.236;-97.118;2023-04-03T08:32:26;17.00;99.90
17774;DHT22;9011;33.236;-97.118;2023-04-03T08:34:55;17.00;99.90
17774;DHT22;9011;33.236;-97.118;2023-04-03T08:37:24;16.90;99.90
17774;DHT22;9011;33.236;-97.118;2023-04-03T08:39:52;16.90;99.90
17774;DHT22;9011;33.236;-97.118;2023-04-03T08:42:36;17.00;99.90
17774;DHT22;9011;33.236;-97.118;2023-04-03T08:45:09;17.00;99.90
17774;DHT22;9011;33.236;-97.118;2023-04-03T08:47:42;16.90;99.90
17774;DHT22;9011;33.236;-97.118;2023-04-03T08:50:16;16.90;99.90
17774;DHT22;9011;33.236;-97.118;2023-04-03T08:52:48;17.00;99.90
17774;DHT22;9011;33.236;-97.118;2023-04-03T08:55:23;16.90;99.90
17774;DHT22;9011;33.236;-97.118;2023-04-03T08:57:59;16.90;99.90
17774;DHT22;9011;33.236;-97.118;2023-04-03T09:00:34;16.90;99.90
17774;DHT22;9011;33.236;-97.118;2023-04-03T09:03:05;16.90;99.90
17774;DHT22;9011;33.236;-97.118;2023-04-03T09:05:44;17.00;99.90
17774;DHT22;9011;33.236;-97.118;2023-04-03T09:08:20;17.00;99.90
17774;DHT22;9011;33.236;-97.118;2023-04-03T09:10:59;17.00;99.90
17774;DHT22;9011;33.236;-97.118;2023-04-03T09:13:39;16.80;99.90
17774;DHT22;9011;33.236;-97.118;2023-04-03T09:16:21;16.90;99.90
17774;DHT22;9011;33.236;-97.118;2023-04-03T09:19:00;16.90;99.90
17774;DHT22;9011;33.236;-97.118;2023-04-03T09:21:35;16.90;99.90
17774;DHT22;9011;33.236;-97.118;2023-04-03T09:24:06;16.90;99.90
17774;DHT22;9011;33.236;-97.118;2023-04-03T09:26:41;16.90;99.90
17774;DHT22;9011;33.236;-97.118;2023-04-03T09:29:16;16.90;99.90
17774;DHT22;9011;33.236;-97.118;2023-04-03T09:31:49;17.00;99.90
17774;DHT22;9011;33.236;-97.118;2023-04-03T09:34:22;17.00;99.90
17774;DHT22;9011;33.236;-97.118;2023-04-03T09:36:52;17.00;99.90
17774;DHT22;9011;33.236;-97.118;2023-04-03T09:39:23;16.90;99.90
17774;DHT22;9011;33.236;-97.118;2023-04-03T09:41:58;16.90;99.90
17774;DHT22;9011;33.236;-97.118;2023-04-03T09:44:31;17.00;99.90
17774;DHT22;9011;33.236;-97.118;2023-04-03T09:47:18;17.00;99.90
17774;DHT22;9011;33.236;-97.118;2023-04-03T09:49:46;16.90;99.90
17774;DHT22;9011;33.236;-97.118;2023-04-03T09:52:24;16.70;99.90
17774;DHT22;9011;33.236;-97.118;2023-04-03T09:54:53;16.80;99.90
17774;DHT22;9011;33.236;-97.118;2023-04-03T09:57:22;16.80;99.90
17774;DHT22;9011;33.236;-97.118;2023-04-03T10:00:03;16.80;99.90
17774;DHT22;9011;33.236;-97.118;2023-04-03T10:02:37;16.80;99.90
17774;DHT22;9011;33.236;-97.118;2023-04-03T10:05:26;16.60;99.90
17774;DHT22;9011;33.236;-97.118;2023-04-03T10:08:09;16.60;99.90
17774;DHT22;9011;33.236;-97.118;2023-04-03T10:10:39;16.60;99.90
17774;DHT22;9011;33.236;-97.118;2023-04-03T10:13:10;16.60;99.90
17774;DHT22;9011;33.236;-97.118;2023-04-03T10:15:43;16.70;99.90
17774;DHT22;9011;33.236;-97.118;2023-04-03T10:18:26;16.60;99.90
17774;DHT22;9011;33.236;-97.118;2023-04-03T10:20:59;16.60;99.90
17774;DHT22;9011;33.236;-97.118;2023-04-03T10:23:36;16.60;99.90
17774;DHT22;9011;33.236;-97.118;2023-04-03T10:26:16;16.60;99.90
17774;DHT22;9011;33.236;-97.118;2023-04-03T10:28:52;16.70;99.90
17774;DHT22;9011;33.236;-97.118;2023-04-03T10:31:28;16.80;99.90
17774;DHT22;9011;33.236;-97.118;2023-04-03T10:34:05;16.70;99.90
17774;DHT22;9011;33.236;-97.118;2023-04-03T10:36:38;16.80;99.90
17774;DHT22;9011;33.236;-97.118;2023-04-03T10:39:19;16.80;99.90
17774;DHT22;9011;33.236;-97.118;2023-04-03T10:42:02;16.80;99.90
17774;DHT22;9011;33.236;-97.118;2023-04-03T10:44:40;16.80;99.90
17774;DHT22;9011;33.236;-97.118;2023-04-03T10:47:18;16.80;99.90
17774;DHT22;9011;33.236;-97.118;2023-04-03T10:49:56;16.90;99.90
17774;DHT22;9011;33.236;-97.118;2023-04-03T10:52:32;16.90;99.90
17774;DHT22;9011;33.236;-97.118;2023-04-03T10:55:15;16.90;99.90
17774;DHT22;9011;33.236;-97.118;2023-04-03T10:57:46;16.90;99.90
17774;DHT22;9011;33.236;-97.118;2023-04-03T11:00:17;17.00;99.90
17774;DHT22;9011;33.236;-97.118;2023-04-03T11:02:52;17.00;99.90
17774;DHT22;9011;33.236;-97.118;2023-04-03T11:05:29;17.00;99.90
17774;DHT22;9011;33.236;-97.118;2023-04-03T11:08:04;17.10;99.90
17774;DHT22;9011;33.236;-97.118;2023-04-03T11:10:41;17.10;99.90
17774;DHT22;9011;33.236;-97.118;2023-04-03T11:13:13;17.10;99.90
17774;DHT22;9011;33.236;-97.118;2023-04-03T11:15:43;17.10;99.90
17774;DHT22;9011;33.236;-97.118;2023-04-03T11:18:19;17.20;99.90
17774;DHT22;9011;33.236;-97.118;2023-04-03T11:20:53;17.20;99.90
17774;DHT22;9011;33.236;-97.118;2023-04-03T11:23:26;17.20;99.90
17774;DHT22;9011;33.236;-97.118;2023-04-03T11:26:07;17.20;99.90
17774;DHT22;9011;33.236;-97.118;2023-04-03T11:28:37;17.10;99.90
17774;DHT22;9011;33.236;-97.118;2023-04-03T11:31:18;17.10;99.90
17774;DHT22;9011;33.236;-97.118;2023-04-03T11:33:58;17.10;99.90
17774;DHT22;9011;33.236;-97.118;2023-04-03T11:36:32;17.10;99.90
17774;DHT22;9011;33.236;-97.118;2023-04-03T11:39:10;17.10;99.90
17774;DHT22;9011;33.236;-97.118;2023-04-03T11:41:42;17.00;99.90
17774;DHT22;9011;33.236;-97.118;2023-04-03T11:44:36;17.00;99.90
17774;DHT22;9011;33.236;-97.118;2023-04-03T11:47:06;17.00;99.90
17774;DHT22;9011;33.236;-97.118;2023-04-03T11:49:59;17.00;99.90
17774;DHT22;9011;33.236;-97.118;2023-04-03T11:52:57;17.00;99.90
17774;DHT22;9011;33.236;-97.118;2023-04-03T11:55:56;16.90;99.90
17774;DHT22;9011;33.236;-97.118;2023-04-03T11:58:29;16.90;99.90
17774;DHT22;9011;33.236;-97.118;2023-04-03T12:01:08;16.90;99.90
17774;DHT22;9011;33.236;-97.118;2023-04-03T12:10:15;16.90;99.90
17774;DHT22;9011;33.236;-97.118;2023-04-03T12:12:56;16.90;99.90
17774;DHT22;9011;33.236;-97.118;2023-04-03T12:15:47;16.90;99.90
17774;DHT22;9011;33.236;-97.118;2023-04-03T12:19:00;16.90;99.90
17774;DHT22;9011;33.236;-97.118;2023-04-03T12:22:04;16.80;99.90
17774;DHT22;9011;33.236;-97.118;2023-04-03T12:24:34;16.70;99.90
17774;DHT22;9011;33.236;-97.118;2023-04-03T12:27:21;16.70;99.90
17774;DHT22;9011;33.236;-97.118;2023-04-03T12:29:55;16.70;99.90
17774;DHT22;9011;33.236;-97.118;2023-04-03T12:32:41;16.70;99.90
17774;DHT22;9011;33.236;-97.118;2023-04-03T12:35:19;16.60;99.90
17774;DHT22;9011;33.236;-97.118;2023-04-03T12:40:45;16.70;99.90
17774;DHT22;9011;33.236;-97.118;2023-04-03T12:43:33;16.60;99.90
17774;DHT22;9011;33.236;-97.118;2023-04-03T12:46:12;16.70;99.90
17774;DHT22;9011;33.236;-97.118;2023-04-03T12:48:50;16.60;99.90
17774;DHT22;9011;33.236;-97.118;2023-04-03T12:51:22;16.70;99.90
17774;DHT22;9011;33.236;-97.118;2023-04-03T12:54:00;16.70;99.90
17774;DHT22;9011;33.236;-97.118;2023-04-03T12:56:31;16.80;99.90
17774;DHT22;9011;33.236;-97.118;2023-04-03T12:59:15;16.90;99.90
17774;DHT22;9011;33.236;-97.118;2023-04-03T13:01:44;17.00;99.90
17774;DHT22;9011;33.236;-97.118;2023-04-03T13:04:21;17.10;99.90
17774;DHT22;9011;33.236;-97.118;2023-04-03T13:06:49;17.20;99.90
17774;DHT22;9011;33.236;-97.118;2023-04-03T13:09:23;17.30;99.90
17774;DHT22;9011;33.236;-97.118;2023-04-03T13:11:58;17.40;99.90
17774;DHT22;9011;33.236;-97.118;2023-04-03T13:14:29;17.60;99.90
17774;DHT22;9011;33.236;-97.118;2023-04-03T13:17:03;17.70;99.90
17774;DHT22;9011;33.236;-97.118;2023-04-03T13:19:32;17.80;99.90
17774;DHT22;9011;33.236;-97.118;2023-04-03T13:22:06;17.90;99.90
17774;DHT22;9011;33.236;-97.118;2023-04-03T13:24:37;18.00;99.90
17774;DHT22;9011;33.236;-97.118;2023-04-03T13:27:06;18.10;99.90
17774;DHT22;9011;33.236;-97.118;2023-04-03T13:29:37;18.30;99.90
17774;DHT22;9011;33.236;-97.118;2023-04-03T13:32:21;18.40;99.90
17774;DHT22;9011;33.236;-97.118;2023-04-03T13:34:50;18.50;99.90
17774;DHT22;9011;33.236;-97.118;2023-04-03T13:37:23;18.60;99.90
17774;DHT22;9011;33.236;-97.118;2023-04-03T13:40:01;18.70;99.90
17774;DHT22;9011;33.236;-97.118;2023-04-03T13:42:31;18.80;99.90
17774;DHT22;9011;33.236;-97.118;2023-04-03T13:45:17;19.00;99.90
17774;DHT22;9011;33.236;-97.118;2023-04-03T13:47:47;19.10;99.90
17774;DHT22;9011;33.236;-97.118;2023-04-03T13:50:18;19.10;99.90
17774;DHT22;9011;33.236;-97.118;2023-04-03T13:52:52;19.20;99.90
17774;DHT22;9011;33.236;-97.118;2023-04-03T13:55:24;19.30;99.90
17774;DHT22;9011;33.236;-97.118;2023-04-03T13:57:55;19.40;99.90
17774;DHT22;9011;33.236;-97.118;2023-04-03T14:00:33;19.50;99.90
17774;DHT22;9011;33.236;-97.118;2023-04-03T14:03:01;19.60;99.90
17774;DHT22;9011;33.236;-97.118;2023-04-03T14:05:30;19.70;99.90
17774;DHT22;9011;33.236;-97.118;2023-04-03T14:07:58;19.80;99.90
17774;DHT22;9011;33.236;-97.118;2023-04-03T14:10:30;19.80;99.90
17774;DHT22;9011;33.236;-97.118;2023-04-03T14:12:59;19.90;99.90
17774;DHT22;9011;33.236;-97.118;2023-04-03T14:15:32;20.00;99.90
17774;DHT22;9011;33.236;-97.118;2023-04-03T14:18:00;20.20;99.90
17774;DHT22;9011;33.236;-97.118;2023-04-03T14:20:29;20.20;99.90
17774;DHT22;9011;33.236;-97.118;2023-04-03T14:22:58;20.40;99.90
17774;DHT22;9011;33.236;-97.118;2023-04-03T14:25:26;20.40;99.90
17774;DHT22;9011;33.236;-97.118;2023-04-03T14:27:55;20.50;99.90
17774;DHT22;9011;33.236;-97.118;2023-04-03T14:30:25;20.60;99.90
17774;DHT22;9011;33.236;-97.118;2023-04-03T14:32:56;20.80;99.90
17774;DHT22;9011;33.236;-97.118;2023-04-03T14:35:25;21.00;99.90
17774;DHT22;9011;33.236;-97.118;2023-04-03T14:37:54;21.10;99.90
17774;DHT22;9011;33.236;-97.118;2023-04-03T14:40:25;21.20;99.90
17774;DHT22;9011;33.236;-97.118;2023-04-03T14:42:55;21.30;99.90
17774;DHT22;9011;33.236;-97.118;2023-04-03T14:45:23;21.50;99.90
17774;DHT22;9011;33.236;-97.118;2023-04-03T14:48:06;21.60;99.90
17774;DHT22;9011;33.236;-97.118;2023-04-03T14:50:37;21.70;99.90
17774;DHT22;9011;33.236;-97.118;2023-04-03T14:53:11;21.90;99.90
17774;DHT22;9011;33.236;-97.118;2023-04-03T14:55:42;22.00;99.90
17774;DHT22;9011;33.236;-97.118;2023-04-03T14:58:13;22.10;99.90
17774;DHT22;9011;33.236;-97.118;2023-04-03T15:00:43;22.30;99.90
17774;DHT22;9011;33.236;-97.118;2023-04-03T15:03:16;22.40;99.90
17774;DHT22;9011;33.236;-97.118;2023-04-03T15:05:47;22.40;99.90
17774;DHT22;9011;33.236;-97.118;2023-04-03T15:08:19;22.60;99.90
17774;DHT22;9011;33.236;-97.118;2023-04-03T15:10:49;22.70;99.90
17774;DHT22;9011;33.236;-97.118;2023-04-03T15:13:19;22.80;99.90
17774;DHT22;9011;33.236;-97.118;2023-04-03T15:15:48;23.00;99.90
17774;DHT22;9011;33.236;-97.118;2023-04-03T15:18:20;23.20;99.90
17774;DHT22;9011;33.236;-97.118;2023-04-03T15:20:49;23.30;99.90
17774;DHT22;9011;33.236;-97.118;2023-04-03T15:23:18;23.40;99.90
17774;DHT22;9011;33.236;-97.118;2023-04-03T15:25:53;23.50;99.90
17774;DHT22;9011;33.236;-97.118;2023-04-03T15:28:25;23.70;99.90
17774;DHT22;9011;33.236;-97.118;2023-04-03T15:30:55;23.80;99.90
17774;DHT22;9011;33.236;-97.118;2023-04-03T15:33:25;23.90;99.90
17774;DHT22;9011;33.236;-97.118;2023-04-03T15:35:54;24.10;99.90
17774;DHT22;9011;33.236;-97.118;2023-04-03T15:38:23;24.20;99.90
17774;DHT22;9011;33.236;-97.118;2023-04-03T15:40:51;24.40;99.90
17774;DHT22;9011;33.236;-97.118;2023-04-03T15:43:20;24.50;99.90
17774;DHT22;9011;33.236;-97.118;2023-04-03T15:45:49;24.60;99.90
17774;DHT22;9011;33.236;-97.118;2023-04-03T15:48:18;24.70;99.90
17774;DHT22;9011;33.236;-97.118;2023-04-03T15:50:48;24.80;99.90
17774;DHT22;9011;33.236;-97.118;2023-04-03T15:53:16;24.80;99.90